createdAt,value
2022-08-23T00:03:01.194Z,14.70
2022-08-23T00:08:06.515Z,14.60
2022-08-23T00:13:09.947Z,14.50
2022-08-23T00:18:14.572Z,14.40
2022-08-23T00:23:17.856Z,14.40
2022-08-23T00:28:20.609Z,14.30
2022-08-23T00:33:23.602Z,14.20
2022-08-23T00:38:33.162Z,14.20
2022-08-23T00:43:59.933Z,14.10
2022-08-23T00:49:07.419Z,14.00
2022-08-23T00:54:11.413Z,14.00
2022-08-23T00:59:14.191Z,14.00
2022-08-23T01:04:18.076Z,14.00
2022-08-23T01:09:22.395Z,13.90
2022-08-23T01:14:28.016Z,13.90
2022-08-23T01:19:39.577Z,13.80
2022-08-23T01:25:05.940Z,13.80
2022-08-23T01:30:11.941Z,13.70
2022-08-23T01:35:16.857Z,13.70
2022-08-23T01:40:20.256Z,13.60
2022-08-23T01:45:23.198Z,13.50
2022-08-23T01:50:27.511Z,13.50
2022-08-23T01:55:30.825Z,13.40
2022-08-23T02:00:37.016Z,13.40
2022-08-23T02:05:41.672Z,13.30
2022-08-23T02:10:46.613Z,13.20
2022-08-23T02:15:51.588Z,13.20
2022-08-23T02:20:54.896Z,13.30
2022-08-23T02:25:57.868Z,13.30
2022-08-23T02:31:01.140Z,13.30
2022-08-23T02:36:06.821Z,13.40
2022-08-23T02:41:09.948Z,13.50
2022-08-23T02:46:13.135Z,13.50
2022-08-23T02:51:16.977Z,13.60
2022-08-23T02:56:21.591Z,13.70
2022-08-23T03:01:35.391Z,13.70
2022-08-23T03:06:51.324Z,13.80
2022-08-23T03:11:54.324Z,13.90
2022-08-23T03:16:58.375Z,14.00
2022-08-23T03:22:02.380Z,14.10
2022-08-23T03:27:07.101Z,14.20
2022-08-23T03:32:10.142Z,14.20
2022-08-23T03:37:14.706Z,14.30
2022-08-23T03:42:17.711Z,14.40
2022-08-23T03:47:23.930Z,14.50
2022-08-23T03:52:27.498Z,14.60
2022-08-23T03:57:30.461Z,14.70
2022-08-23T04:02:33.318Z,14.70
2022-08-23T04:07:37.822Z,14.80
2022-08-23T04:12:41.974Z,14.80
2022-08-23T04:17:50.306Z,14.90
2022-08-23T04:22:55.063Z,14.90
2022-08-23T04:28:00.909Z,15.00
2022-08-23T04:33:10.634Z,15.10
2022-08-23T04:38:24.234Z,15.10
2022-08-23T04:43:28.742Z,15.20
2022-08-23T04:48:31.778Z,15.30
2022-08-23T04:53:36.242Z,15.30
2022-08-23T04:59:14.009Z,15.40
2022-08-23T05:04:20.763Z,15.40
2022-08-23T05:09:25.287Z,15.50
2022-08-23T05:14:28.514Z,15.50
2022-08-23T05:19:31.384Z,15.60
2022-08-23T05:24:34.336Z,15.60
2022-08-23T05:29:38.023Z,15.60
2022-08-23T05:34:41.047Z,15.60
2022-08-23T05:39:47.013Z,15.60
2022-08-23T05:44:49.786Z,15.60
2022-08-23T05:49:55.729Z,15.60
2022-08-23T05:54:59.846Z,15.70
2022-08-23T06:00:37.289Z,15.70
2022-08-23T06:05:43.514Z,15.80
2022-08-23T06:10:47.587Z,15.80
2022-08-23T06:16:00.395Z,15.90
2022-08-23T06:21:18.540Z,15.90
2022-08-23T06:26:28.055Z,16.00
2022-08-23T06:31:47.342Z,16.10
2022-08-23T06:36:56.584Z,16.10
2022-08-23T06:42:37.423Z,16.20
2022-08-23T06:47:41.044Z,16.30
2022-08-23T06:52:46.585Z,16.30
2022-08-23T06:57:59.441Z,16.40
2022-08-23T07:03:37.873Z,16.50
2022-08-23T07:09:16.266Z,16.60
2022-08-23T07:14:21.955Z,16.70
2022-08-23T07:19:28.969Z,16.80
2022-08-23T07:24:33.967Z,16.90
2022-08-23T07:29:39.886Z,17.10
2022-08-23T07:34:44.161Z,17.20
2022-08-23T07:39:47.142Z,17.40
2022-08-23T07:44:49.958Z,17.60
2022-08-23T07:49:57.372Z,17.90
2022-08-23T07:55:00.445Z,18.10
2022-08-23T08:00:22.955Z,18.20
2022-08-23T08:05:36.661Z,18.40
2022-08-23T08:10:41.714Z,18.60
2022-08-23T08:15:44.621Z,18.90
2022-08-23T08:20:51.382Z,19.20
2022-08-23T08:26:05.806Z,19.30
2022-08-23T08:31:10.868Z,19.40
2022-08-23T08:36:41.882Z,19.60
2022-08-23T08:42:12.021Z,19.80
2022-08-23T08:47:30.260Z,19.70
2022-08-23T08:53:01.911Z,19.90
2022-08-23T08:58:49.418Z,19.90
2022-08-23T09:03:53.097Z,19.90
2022-08-23T09:09:16.006Z,20.20
2022-08-23T09:14:55.137Z,20.50
2022-08-23T09:20:01.784Z,20.70
2022-08-23T09:25:10.227Z,20.80
2022-08-23T09:30:21.821Z,20.80
2022-08-23T09:35:26.565Z,20.70
2022-08-23T09:40:46.482Z,20.80
2022-08-23T09:45:51.021Z,20.60
2022-08-23T09:51:03.246Z,20.60
2022-08-23T09:56:26.546Z,20.50
2022-08-23T10:01:38.878Z,20.50
2022-08-23T10:06:48.194Z,20.50
2022-08-23T10:11:51.335Z,20.60
2022-08-23T10:17:12.534Z,20.70
2022-08-23T10:22:24.619Z,20.90
2022-08-23T10:28:17.751Z,21.00
2022-08-23T10:33:47.075Z,21.30
2022-08-23T10:39:11.705Z,21.60
2022-08-23T10:44:27.971Z,21.70
2022-08-23T10:49:34.128Z,21.90
2022-08-23T10:54:47.286Z,22.10
2022-08-23T10:59:54.114Z,22.20
2022-08-23T11:05:03.909Z,21.90
2022-08-23T11:10:56.832Z,21.70
2022-08-23T11:16:14.252Z,21.70
2022-08-23T11:21:18.997Z,22.10
2022-08-23T11:26:28.536Z,22.20
2022-08-23T11:31:43.181Z,22.10
2022-08-23T11:37:18.705Z,22.10
2022-08-23T11:42:23.237Z,21.80
2022-08-23T11:47:45.163Z,21.80
2022-08-23T11:53:02.863Z,21.80
2022-08-23T11:58:26.062Z,21.70
2022-08-23T12:03:36.785Z,21.70
2022-08-23T12:08:45.794Z,21.50
2022-08-23T12:13:59.655Z,21.40
2022-08-23T12:19:06.852Z,21.30
2022-08-23T12:24:22.981Z,21.10
2022-08-23T12:29:34.142Z,21.00
2022-08-23T12:35:19.163Z,21.00
2022-08-23T12:40:43.875Z,21.10
2022-08-23T12:45:50.825Z,21.10
2022-08-23T12:51:10.733Z,21.20
2022-08-23T12:56:22.839Z,21.30
2022-08-23T13:01:39.087Z,21.50
2022-08-23T13:06:49.514Z,21.70
2022-08-23T13:11:53.247Z,21.80
2022-08-23T13:16:56.165Z,21.90
2022-08-23T13:22:23.533Z,22.10
2022-08-23T13:27:35.274Z,22.10
2022-08-23T13:32:41.802Z,22.20
2022-08-23T13:37:47.534Z,22.00
2022-08-23T13:43:05.660Z,22.10
2022-08-23T13:48:18.852Z,22.20
2022-08-23T13:53:22.450Z,22.30
2022-08-23T13:58:34.002Z,22.40
2022-08-23T14:03:36.866Z,22.40
2022-08-23T14:08:39.819Z,22.30
2022-08-23T14:13:45.841Z,22.50
2022-08-23T14:24:11.261Z,23.30
2022-08-23T14:29:15.511Z,23.50
2022-08-23T14:34:18.686Z,23.60
2022-08-23T14:39:22.721Z,23.60
2022-08-23T14:44:29.003Z,23.60
2022-08-23T14:49:36.224Z,23.60
2022-08-23T14:54:39.125Z,23.60
2022-08-23T14:59:42.009Z,23.50
2022-08-23T15:04:44.722Z,23.60
2022-08-23T15:09:49.904Z,23.50
2022-08-23T15:14:53.569Z,23.40
2022-08-23T15:19:56.387Z,23.60
2022-08-23T15:24:59.117Z,23.70
2022-08-23T15:30:02.058Z,23.80
2022-08-23T15:35:05.397Z,23.70
2022-08-23T15:40:09.210Z,23.80
2022-08-23T15:45:12.505Z,24.20
2022-08-23T15:50:16.675Z,24.50
2022-08-23T15:55:21.173Z,24.50
2022-08-23T16:00:24.981Z,24.50
2022-08-23T16:05:27.726Z,24.50
2022-08-23T16:10:30.515Z,24.30
2022-08-23T16:15:33.281Z,24.30
2022-08-23T16:20:36.222Z,24.40
2022-08-23T16:25:41.493Z,24.50
2022-08-23T16:30:44.271Z,24.60
2022-08-23T16:35:47.481Z,24.60
2022-08-23T16:40:50.249Z,24.60
2022-08-23T16:45:53.170Z,24.70
2022-08-23T16:50:55.934Z,24.60
2022-08-23T16:55:58.763Z,24.40
2022-08-23T17:01:01.495Z,24.40
2022-08-23T17:06:04.405Z,24.30
2022-08-23T17:11:10.491Z,24.40
2022-08-23T17:16:13.341Z,24.30
2022-08-23T17:21:16.363Z,24.20
2022-08-23T17:26:19.698Z,24.20
2022-08-23T17:31:23.195Z,24.10
2022-08-23T17:36:37.826Z,23.80
2022-08-23T17:41:45.207Z,23.90
2022-08-23T17:46:49.101Z,23.70
2022-08-23T17:51:51.814Z,23.60
2022-08-23T17:56:54.956Z,23.40
2022-08-23T18:01:58.081Z,23.20
2022-08-23T18:07:01.273Z,23.10
2022-08-23T18:12:04.405Z,22.90
2022-08-23T18:17:07.218Z,22.70
2022-08-23T18:22:10.006Z,22.50
2022-08-23T18:27:33.052Z,22.40
2022-08-23T18:32:35.975Z,22.10
2022-08-23T18:37:38.977Z,21.90
2022-08-23T18:42:41.835Z,21.70
2022-08-23T18:47:44.631Z,21.50
2022-08-23T18:52:47.482Z,21.30
2022-08-23T18:57:50.200Z,21.10
2022-08-23T19:02:53.331Z,20.90
2022-08-23T19:07:56.612Z,20.80
2022-08-23T19:13:00.029Z,20.50
2022-08-23T19:18:03.403Z,20.30
2022-08-23T19:23:06.267Z,20.10
2022-08-23T19:28:09.169Z,20.00
2022-08-23T19:33:12.393Z,19.80
2022-08-23T19:38:15.192Z,19.60
2022-08-23T19:43:18.415Z,19.50
2022-08-23T19:48:21.759Z,19.40
2022-08-23T19:53:24.570Z,19.40
2022-08-23T19:58:30.221Z,19.30
2022-08-23T20:03:33.001Z,19.20
2022-08-23T20:08:36.298Z,19.20
2022-08-23T20:13:38.993Z,19.10
2022-08-23T20:18:42.765Z,19.10
2022-08-23T20:24:04.444Z,19.10
2022-08-23T20:29:12.341Z,19.10
2022-08-23T20:34:15.159Z,19.00
2022-08-23T20:39:23.227Z,19.10
2022-08-23T20:44:27.031Z,19.10
2022-08-23T20:49:29.733Z,19.00
2022-08-23T20:54:33.342Z,19.00
2022-08-23T20:59:38.114Z,19.10
2022-08-23T21:04:43.764Z,19.00
2022-08-23T21:09:48.835Z,19.00
2022-08-23T21:14:51.616Z,19.00
2022-08-23T21:19:54.502Z,19.00
2022-08-23T21:24:57.284Z,19.00
2022-08-23T21:30:00.172Z,19.00
2022-08-23T21:35:03.393Z,19.00
2022-08-23T21:40:07.067Z,19.00
2022-08-23T21:45:10.201Z,18.90
2022-08-23T21:50:13.071Z,18.90
2022-08-23T21:55:16.151Z,18.90
2022-08-23T22:00:18.987Z,18.90
2022-08-23T22:05:21.697Z,18.90
2022-08-23T22:10:24.926Z,18.90
2022-08-23T22:15:27.792Z,18.90
2022-08-23T22:20:31.747Z,18.90
2022-08-23T22:25:34.508Z,18.80
2022-08-23T22:30:37.314Z,18.80
2022-08-23T22:35:40.174Z,18.80
2022-08-23T22:40:50.801Z,18.70
2022-08-23T22:46:00.854Z,18.70
2022-08-23T22:51:08.662Z,18.60
2022-08-23T22:56:13.195Z,18.40
2022-08-23T23:01:37.581Z,18.40
2022-08-23T23:06:40.635Z,18.30
2022-08-23T23:11:44.486Z,18.20
2022-08-23T23:16:49.424Z,18.00
2022-08-23T23:21:56.795Z,17.90
2022-08-23T23:27:00.613Z,17.80
2022-08-23T23:32:03.755Z,17.60
2022-08-23T23:37:06.512Z,17.50
2022-08-23T23:42:09.275Z,17.40
2022-08-23T23:47:12.019Z,17.30
2022-08-23T23:52:14.765Z,17.20
2022-08-23T23:57:17.766Z,17.10
